createdAt,value
2018-09-20T17:51:15.989Z,7.37
2018-09-20T17:53:44.629Z,5.70
2018-09-20T17:56:14.021Z,6.23
2018-09-20T17:58:42.966Z,6.40
2018-09-20T18:01:10.633Z,6.83
2018-09-20T18:03:38.336Z,7.80
2018-09-20T18:06:06.214Z,6.07
2018-09-20T18:08:34.212Z,6.33
2018-09-20T18:11:02.089Z,6.63
2018-09-20T18:13:29.761Z,6.47
2018-09-20T18:15:57.445Z,6.80
2018-09-20T18:18:25.136Z,6.33
2018-09-20T18:20:53.683Z,6.93
2018-09-20T18:23:21.354Z,6.33
2018-09-20T18:25:49.036Z,6.07
2018-09-20T18:28:16.707Z,6.40
2018-09-20T18:30:52.138Z,6.03
2018-09-20T18:33:19.833Z,6.20
2018-09-20T18:35:54.403Z,6.13
2018-09-20T18:38:22.273Z,6.50
2018-09-20T18:40:51.652Z,6.30
2018-09-20T18:43:23.496Z,6.53
2018-09-20T18:45:56.833Z,7.03
2018-09-20T18:48:24.700Z,6.30
2018-09-20T18:50:52.340Z,6.13
2018-09-20T18:53:24.214Z,6.00
2018-09-20T18:55:52.065Z,5.50
2018-09-20T18:58:26.940Z,6.63
2018-09-20T19:00:54.719Z,5.33
2018-09-20T19:03:23.750Z,5.90
2018-09-20T19:05:51.422Z,5.67
2018-09-20T19:08:19.229Z,5.17
2018-09-20T19:10:46.896Z,5.30
2018-09-20T19:13:15.469Z,6.13
2018-09-20T19:15:43.174Z,5.50
2018-09-20T19:18:11.261Z,5.57
2018-09-20T19:20:39.409Z,5.00
2018-09-20T19:23:07.231Z,4.80
2018-09-20T19:25:34.965Z,5.50
2018-09-20T19:28:02.663Z,4.83
2018-09-20T19:30:30.393Z,5.33
2018-09-20T19:32:58.072Z,5.10
2018-09-20T19:35:25.956Z,5.00
2018-09-20T19:37:53.637Z,5.00
2018-09-20T19:40:21.318Z,5.53
2018-09-20T19:42:48.989Z,4.80
2018-09-20T19:45:17.941Z,4.90
2018-09-20T19:47:45.604Z,5.00
2018-09-20T19:50:13.280Z,4.83
2018-09-20T19:52:40.956Z,4.57
2018-09-20T19:55:08.620Z,5.13
2018-09-20T19:57:36.309Z,4.30
2018-09-20T20:00:04.375Z,4.50
2018-09-20T20:02:32.049Z,4.70
2018-09-20T20:04:59.717Z,4.20
2018-09-20T20:07:27.381Z,5.20
2018-09-20T20:09:55.042Z,4.37
2018-09-20T20:12:22.720Z,4.27
2018-09-20T20:14:50.386Z,4.43
2018-09-20T20:17:18.301Z,4.50
2018-09-20T20:19:45.991Z,4.47
2018-09-20T20:22:13.656Z,4.73
2018-09-20T20:24:41.321Z,4.27
2018-09-20T20:27:08.989Z,3.90
2018-09-20T20:29:36.652Z,4.40
2018-09-20T20:32:04.418Z,4.43
2018-09-20T20:34:32.093Z,4.07
2018-09-20T20:37:00.602Z,3.50
2018-09-20T20:39:28.291Z,3.63
2018-09-20T20:41:56.010Z,3.90
2018-09-20T20:44:23.686Z,4.03
2018-09-20T20:46:51.357Z,3.90
2018-09-20T20:49:19.049Z,5.97
2018-09-20T20:51:46.733Z,6.10
2018-09-20T20:54:14.401Z,6.60
2018-09-20T20:56:42.153Z,9.57
2018-09-20T20:59:11.228Z,8.27
2018-09-20T21:01:38.937Z,12.70
2018-09-20T21:04:06.766Z,12.47
2018-09-20T21:06:34.432Z,12.53
2018-09-20T21:09:02.868Z,9.70
2018-09-20T21:11:30.599Z,8.70
2018-09-20T21:13:58.277Z,9.87
2018-09-20T21:16:25.937Z,6.70
2018-09-20T21:18:53.597Z,9.23
2018-09-20T21:21:52.432Z,10.57
2018-09-20T21:24:20.094Z,7.17
2018-09-20T21:26:47.773Z,9.03
2018-09-20T21:29:15.449Z,12.47
2018-09-20T21:31:43.125Z,9.60
2018-09-20T21:34:10.785Z,7.67
2018-09-20T21:36:38.521Z,9.03
2018-09-20T21:39:08.824Z,7.07
2018-09-20T21:41:36.534Z,6.63
2018-09-20T21:44:04.265Z,6.83
2018-09-20T21:46:31.932Z,8.30
2018-09-20T21:48:59.600Z,7.17
2018-09-20T21:51:27.264Z,6.57
2018-09-20T21:53:54.924Z,6.20
2018-09-20T21:56:22.604Z,7.73
2018-09-20T21:58:50.339Z,6.43
2018-09-20T22:01:17.958Z,6.23
2018-09-20T22:03:45.637Z,7.80
2018-09-20T22:06:13.308Z,8.83
2018-09-20T22:08:40.994Z,8.93
2018-09-20T22:11:08.669Z,6.87
2018-09-20T22:13:36.357Z,7.43
2018-09-20T22:16:04.025Z,6.67
2018-09-20T22:18:31.705Z,6.70
2018-09-20T22:20:59.384Z,8.30
2018-09-20T22:23:27.063Z,6.10
2018-09-20T22:25:54.721Z,7.47
2018-09-20T22:28:22.392Z,6.53
2018-09-20T22:30:50.062Z,7.77
2018-09-20T22:33:17.806Z,7.63
2018-09-20T22:35:45.645Z,8.43
2018-09-20T22:38:13.465Z,7.73
2018-09-20T22:40:41.149Z,7.70
2018-09-20T22:43:08.812Z,6.47
2018-09-20T22:45:36.473Z,7.53
2018-09-20T22:48:04.517Z,6.63
2018-09-20T22:50:32.214Z,9.03
2018-09-20T22:52:59.908Z,9.97
2018-09-20T22:55:27.574Z,7.80
2018-09-20T22:57:55.242Z,6.20
2018-09-20T23:00:23.777Z,9.93
2018-09-20T23:02:52.985Z,6.60
2018-09-20T23:05:20.660Z,6.60
2018-09-20T23:07:48.338Z,7.03
2018-09-20T23:10:16.188Z,8.73
2018-09-20T23:12:44.465Z,6.27
2018-09-20T23:15:12.132Z,9.80
2018-09-20T23:17:39.805Z,7.27
2018-09-20T23:20:07.491Z,7.47
2018-09-20T23:22:35.172Z,7.47
2018-09-20T23:25:02.837Z,7.57
2018-09-20T23:27:30.525Z,7.13
2018-09-20T23:29:58.181Z,8.67
2018-09-20T23:32:25.853Z,8.60
2018-09-20T23:34:53.516Z,7.27
2018-09-20T23:37:21.209Z,7.37
2018-09-20T23:39:48.941Z,7.23
2018-09-20T23:42:16.623Z,8.47
2018-09-20T23:44:44.276Z,8.37
2018-09-20T23:47:11.963Z,9.27
2018-09-20T23:49:39.680Z,8.30
2018-09-20T23:52:07.360Z,7.40
2018-09-20T23:54:35.020Z,10.30
2018-09-20T23:57:02.695Z,8.30
2018-09-20T23:59:30.359Z,8.47
